Austin, Arkansas
Current Conditions -  °F | °C
As of 5:58 PM on Monday 24 Nov 2014 (Local Time) from KLRF Reporting Station
Clear Clear  
Wind Chill: 44°   Ceiling: Unl
Heat Index: 47°   Visibility: 10mi
Dew Point: 25°   Wind: 6mph
Humidity: 43%   Direction: 270°W
Pressure: 29.98"   Gusts: NA
Location:  35°N, 91.98°W
Report Text: KLRF 242358Z AUTO 27005KT 10SM CLR 08/M04 A2998 RMK AO2 SLP156 T00821037 10152 20079 52025
Loading
Personal Weather Stations






























Interactive Weather Map New forecast layout! Learn more

10-Day Weather Forecast

Advertisements
Track Severe Weather on mobile